Terminal Aerodrome Forecast
Issued by NWS Burlington, VT

Home | Current Version | Previous Version | Text Only | Print | Product List | Glossary On
Versions: 1 2 3 4 5 6 7 8 9 10 11 12 13 14
000
FTUS41 KBTV 310524
TAFBTV
TAF
KBTV 310524Z 3106/0106 00000KT P6SM SCT200
     FM311200 VRB03KT P6SM BKN150
     FM311900 16005KT P6SM VCSH OVC045
     FM010000 00000KT 5SM -SHRA BR OVC070
     FM010400 00000KT P6SM VCSH OVC050=

USA.gov is the U.S. government's official web portal to all federal, state and local government web resources and services.